createdAt,value
2022-12-24T00:01:09.047Z,21.90
2022-12-24T00:03:38.494Z,21.90
2022-12-24T00:06:06.834Z,21.80
2022-12-24T00:08:34.881Z,21.90
2022-12-24T00:11:02.901Z,21.90
2022-12-24T00:13:30.631Z,21.90
2022-12-24T00:15:58.356Z,21.90
2022-12-24T00:18:27.462Z,21.90
2022-12-24T00:20:55.257Z,21.90
2022-12-24T00:23:23.098Z,21.80
2022-12-24T00:25:50.900Z,21.90
2022-12-24T00:28:18.615Z,21.90
2022-12-24T00:30:46.414Z,21.90
2022-12-24T00:33:16.166Z,21.80
2022-12-24T00:35:52.701Z,21.90
2022-12-24T00:38:20.462Z,21.80
2022-12-24T00:40:48.283Z,21.90
2022-12-24T00:43:16.052Z,21.80
2022-12-24T00:45:43.867Z,21.90
2022-12-24T00:48:11.618Z,21.90
2022-12-24T00:50:39.391Z,21.90
2022-12-24T00:53:08.480Z,21.90
2022-12-24T00:55:36.167Z,21.90
2022-12-24T00:58:03.901Z,21.90
2022-12-24T01:00:31.653Z,21.90
2022-12-24T01:02:59.589Z,21.90
2022-12-24T01:05:27.446Z,21.90
2022-12-24T01:07:55.177Z,21.90
2022-12-24T01:10:24.237Z,21.90
2022-12-24T01:12:51.921Z,21.90
2022-12-24T01:15:19.782Z,21.90
2022-12-24T01:17:47.583Z,21.90
2022-12-24T01:20:17.431Z,21.90
2022-12-24T01:22:45.179Z,21.90
2022-12-24T01:25:13.624Z,21.90
2022-12-24T01:27:42.680Z,21.90
2022-12-24T01:30:14.697Z,21.90
2022-12-24T01:32:42.469Z,21.90
2022-12-24T01:35:12.074Z,21.90
2022-12-24T01:37:40.277Z,21.90
2022-12-24T01:40:27.580Z,21.90
2022-12-24T01:43:14.157Z,21.90
2022-12-24T01:45:46.286Z,21.90
2022-12-24T01:48:20.642Z,21.90
2022-12-24T01:50:51.670Z,21.90
2022-12-24T01:53:19.687Z,21.90
2022-12-24T01:55:48.624Z,21.90
2022-12-24T01:58:19.201Z,21.80
2022-12-24T02:00:47.129Z,21.90
2022-12-24T02:03:14.928Z,21.90
2022-12-24T02:05:48.419Z,21.90
2022-12-24T02:08:17.072Z,21.90
2022-12-24T02:10:45.160Z,21.90
2022-12-24T02:13:14.431Z,21.90
2022-12-24T02:15:55.701Z,21.90
2022-12-24T02:18:28.792Z,21.90
2022-12-24T02:21:20.398Z,21.90
2022-12-24T02:24:11.674Z,21.90
2022-12-24T02:26:57.583Z,21.80
2022-12-24T02:29:50.720Z,21.90
2022-12-24T02:32:23.818Z,21.80
2022-12-24T02:34:57.663Z,21.90
2022-12-24T02:37:29.013Z,21.90
2022-12-24T02:40:01.575Z,21.90
2022-12-24T02:42:37.871Z,21.80
2022-12-24T02:45:09.991Z,21.90
2022-12-24T02:47:40.007Z,21.90
2022-12-24T02:50:10.599Z,21.90
2022-12-24T02:52:40.119Z,21.80
2022-12-24T02:55:11.759Z,21.80
2022-12-24T02:57:51.101Z,21.90
2022-12-24T03:00:23.838Z,21.90
2022-12-24T03:03:07.899Z,21.90
2022-12-24T03:05:41.863Z,21.80
2022-12-24T03:08:16.970Z,21.90
2022-12-24T03:10:53.522Z,21.90
2022-12-24T03:13:22.379Z,21.90
2022-12-24T03:15:52.078Z,21.90
2022-12-24T03:18:23.279Z,21.90
2022-12-24T03:20:57.327Z,21.90
2022-12-24T03:23:25.484Z,21.90
2022-12-24T03:25:53.665Z,21.90
2022-12-24T03:28:27.163Z,21.90
2022-12-24T03:30:56.762Z,21.90
2022-12-24T03:33:24.452Z,21.90
2022-12-24T03:35:52.140Z,21.90
2022-12-24T03:38:19.834Z,21.90
2022-12-24T03:40:47.755Z,21.90
2022-12-24T03:43:15.480Z,21.90
2022-12-24T03:45:43.307Z,21.90
2022-12-24T03:48:12.593Z,21.90
2022-12-24T03:50:40.301Z,21.90
2022-12-24T03:53:08.239Z,21.90
2022-12-24T03:55:35.997Z,21.90
2022-12-24T03:58:03.693Z,21.90
2022-12-24T04:00:31.585Z,21.90
2022-12-24T04:02:59.348Z,21.90
2022-12-24T04:05:28.485Z,21.90
2022-12-24T04:07:56.299Z,21.90
2022-12-24T04:10:23.982Z,21.90
2022-12-24T04:12:51.745Z,21.90
2022-12-24T04:15:19.575Z,21.90
2022-12-24T04:17:47.291Z,21.90
2022-12-24T04:20:15.020Z,21.90
2022-12-24T04:22:44.047Z,21.80
2022-12-24T04:25:11.794Z,21.90
2022-12-24T04:27:39.473Z,21.90
2022-12-24T04:30:08.512Z,21.90
2022-12-24T04:32:36.214Z,21.90
2022-12-24T04:35:03.999Z,21.90
2022-12-24T04:37:31.699Z,21.90
2022-12-24T04:40:00.713Z,21.90
2022-12-24T04:42:28.420Z,21.90
2022-12-24T04:44:56.114Z,21.90
2022-12-24T04:47:23.828Z,21.80
2022-12-24T04:49:51.518Z,21.90
2022-12-24T04:52:19.211Z,21.90
2022-12-24T04:54:46.946Z,21.90
2022-12-24T04:57:15.973Z,21.90
2022-12-24T04:59:43.672Z,21.80
2022-12-24T05:02:11.549Z,21.90
2022-12-24T05:04:39.425Z,21.90
2022-12-24T05:07:07.330Z,21.80
2022-12-24T05:09:35.235Z,21.90
2022-12-24T05:12:02.955Z,21.90
2022-12-24T05:14:31.961Z,21.90
2022-12-24T05:16:59.714Z,21.80
2022-12-24T05:19:27.431Z,21.90
2022-12-24T05:22:09.116Z,21.90
2022-12-24T05:24:54.369Z,21.90
2022-12-24T05:27:22.631Z,21.90
2022-12-24T05:29:51.667Z,21.80
2022-12-24T05:32:19.358Z,21.80
2022-12-24T05:34:47.052Z,21.90
2022-12-24T05:37:14.768Z,21.90
2022-12-24T05:39:42.477Z,21.80
2022-12-24T05:42:10.216Z,21.90
2022-12-24T05:44:38.027Z,21.80
2022-12-24T05:47:07.072Z,21.90
2022-12-24T05:49:34.765Z,21.90
2022-12-24T05:52:02.508Z,21.90
2022-12-24T05:54:30.372Z,21.80
2022-12-24T05:56:58.089Z,21.90
2022-12-24T05:59:25.777Z,21.90
2022-12-24T06:01:53.571Z,21.90
2022-12-24T06:04:28.408Z,21.90
2022-12-24T06:06:56.771Z,21.90
2022-12-24T06:09:24.452Z,21.80
2022-12-24T06:11:52.179Z,21.90
2022-12-24T06:14:19.886Z,21.90
2022-12-24T06:16:47.585Z,21.80
2022-12-24T06:19:15.292Z,21.80
2022-12-24T06:21:44.303Z,21.80
2022-12-24T06:24:12.027Z,21.80
2022-12-24T06:26:39.733Z,21.90
2022-12-24T06:29:07.426Z,21.80
2022-12-24T06:31:35.177Z,21.80
2022-12-24T06:34:03.047Z,21.80
2022-12-24T06:36:30.740Z,21.80
2022-12-24T06:38:59.761Z,21.90
2022-12-24T06:41:27.560Z,21.90
2022-12-24T06:43:55.454Z,21.80
2022-12-24T06:46:23.679Z,21.90
2022-12-24T06:48:51.971Z,21.90
2022-12-24T06:51:20.295Z,21.90
2022-12-24T06:53:48.111Z,21.80
2022-12-24T06:56:17.701Z,21.80
2022-12-24T06:58:45.393Z,21.90
2022-12-24T07:01:16.714Z,21.80
2022-12-24T07:03:44.593Z,21.80
2022-12-24T07:06:18.575Z,21.80
2022-12-24T07:08:46.311Z,21.80
2022-12-24T07:11:14.010Z,21.90
2022-12-24T07:13:43.052Z,21.80
2022-12-24T07:16:10.903Z,21.80
2022-12-24T07:18:38.715Z,21.80
2022-12-24T07:21:07.149Z,21.80
2022-12-24T07:23:35.103Z,21.90
2022-12-24T07:26:03.500Z,21.80
2022-12-24T07:28:31.763Z,21.90
2022-12-24T07:31:01.372Z,21.90
2022-12-24T07:33:29.305Z,21.90
2022-12-24T07:36:01.820Z,21.80
2022-12-24T07:38:30.227Z,21.80
2022-12-24T07:40:58.392Z,21.90
2022-12-24T07:43:26.375Z,21.80
2022-12-24T07:45:57.588Z,21.80
2022-12-24T07:48:28.387Z,21.80
2022-12-24T07:50:56.959Z,21.80
2022-12-24T07:53:25.293Z,21.80
2022-12-24T07:55:53.722Z,21.90
2022-12-24T07:58:21.892Z,21.90
2022-12-24T08:00:49.652Z,21.90
2022-12-24T08:03:19.231Z,21.80
2022-12-24T08:05:49.230Z,21.80
2022-12-24T08:08:16.960Z,21.70
2022-12-24T08:10:46.539Z,21.60
2022-12-24T08:13:14.562Z,21.50
2022-12-24T08:15:42.432Z,21.40
2022-12-24T08:18:10.781Z,21.40
2022-12-24T08:20:39.372Z,21.40
2022-12-24T08:23:09.157Z,21.40
2022-12-24T08:25:37.484Z,21.40
2022-12-24T08:28:05.836Z,21.50
2022-12-24T08:30:33.621Z,21.50
2022-12-24T08:33:01.463Z,21.50
2022-12-24T08:35:29.240Z,21.60
2022-12-24T08:37:57.100Z,21.60
2022-12-24T08:40:26.560Z,21.60
2022-12-24T08:42:54.296Z,21.60
2022-12-24T08:45:22.248Z,21.60
2022-12-24T08:47:49.978Z,21.60
2022-12-24T08:50:17.718Z,21.60
2022-12-24T08:52:45.444Z,21.70
2022-12-24T08:55:13.172Z,21.70
2022-12-24T08:57:42.294Z,21.70
2022-12-24T09:00:13.223Z,21.70
2022-12-24T09:02:41.021Z,21.80
2022-12-24T09:05:09.423Z,21.80
2022-12-24T09:07:37.719Z,21.80
2022-12-24T09:10:06.555Z,21.90
2022-12-24T09:12:34.247Z,21.80
2022-12-24T09:15:04.544Z,21.80
2022-12-24T09:17:32.686Z,21.90
2022-12-24T09:20:00.403Z,21.90
2022-12-24T09:22:28.122Z,21.90
2022-12-24T09:24:56.036Z,21.90
2022-12-24T09:27:23.954Z,21.90
2022-12-24T09:29:51.758Z,22.00
2022-12-24T09:32:20.784Z,21.90
2022-12-24T09:34:48.581Z,22.00
2022-12-24T09:37:16.299Z,21.90
2022-12-24T09:39:44.383Z,21.90
2022-12-24T09:42:22.241Z,22.00
2022-12-24T09:44:59.425Z,22.00
2022-12-24T09:47:39.519Z,22.00
2022-12-24T09:50:24.075Z,22.00
2022-12-24T09:52:53.533Z,22.10
2022-12-24T09:55:26.451Z,22.10
2022-12-24T09:57:56.217Z,22.10
2022-12-24T10:00:27.590Z,22.10
2022-12-24T10:02:57.397Z,22.10
2022-12-24T10:05:33.688Z,22.10
2022-12-24T10:08:09.731Z,22.10
2022-12-24T10:10:43.698Z,22.20
2022-12-24T10:13:19.277Z,22.20
2022-12-24T10:15:54.275Z,22.20
2022-12-24T10:18:32.856Z,22.20
2022-12-24T10:21:08.590Z,22.20
2022-12-24T10:23:40.710Z,22.20
2022-12-24T10:26:15.619Z,22.20
2022-12-24T10:28:47.849Z,22.20
2022-12-24T10:31:16.335Z,22.10
2022-12-24T10:33:51.467Z,22.10
2022-12-24T10:36:23.282Z,22.10
2022-12-24T10:38:51.111Z,22.10
2022-12-24T10:41:19.204Z,22.10
2022-12-24T10:43:48.573Z,22.10
2022-12-24T10:46:20.523Z,22.10
2022-12-24T10:48:54.354Z,22.10
2022-12-24T10:51:29.941Z,22.20
2022-12-24T10:54:02.486Z,22.20
2022-12-24T10:56:30.348Z,22.20
2022-12-24T10:58:58.091Z,22.20
2022-12-24T11:01:45.779Z,22.20
2022-12-24T11:04:19.512Z,22.20
2022-12-24T11:06:55.335Z,22.20
2022-12-24T11:09:25.219Z,22.30
2022-12-24T11:11:53.188Z,22.30
2022-12-24T11:14:22.292Z,22.30
2022-12-24T11:16:53.465Z,22.30
2022-12-24T11:19:30.792Z,22.30
2022-12-24T11:22:04.415Z,22.30
2022-12-24T11:24:34.631Z,22.40
2022-12-24T11:27:32.164Z,22.40
2022-12-24T11:30:29.046Z,22.40
2022-12-24T11:33:22.567Z,22.40
2022-12-24T11:35:55.942Z,22.40
2022-12-24T11:38:25.822Z,22.40
2022-12-24T11:41:11.038Z,22.40
2022-12-24T11:43:46.921Z,22.40
2022-12-24T11:46:23.700Z,22.40
2022-12-24T11:49:16.612Z,22.40
2022-12-24T11:52:17.524Z,22.40
2022-12-24T11:54:57.048Z,22.40
2022-12-24T11:57:30.550Z,22.40
2022-12-24T11:59:58.471Z,22.40
2022-12-24T12:02:29.629Z,22.40
2022-12-24T12:05:01.157Z,22.40
2022-12-24T12:07:32.102Z,22.40
2022-12-24T12:10:04.658Z,22.40
2022-12-24T12:12:36.104Z,22.40
2022-12-24T12:15:12.308Z,22.40
2022-12-24T12:17:45.143Z,22.40
2022-12-24T12:20:19.865Z,22.40
2022-12-24T12:22:57.184Z,22.50
2022-12-24T12:25:31.655Z,22.50
2022-12-24T12:28:01.403Z,22.50
2022-12-24T12:30:31.626Z,22.50
2022-12-24T12:33:03.882Z,22.50
2022-12-24T12:35:35.113Z,22.50
2022-12-24T12:38:07.506Z,22.50
2022-12-24T12:41:02.940Z,22.50
2022-12-24T12:43:41.545Z,22.50
2022-12-24T12:46:17.455Z,22.50
2022-12-24T12:49:08.645Z,22.50
2022-12-24T12:51:44.167Z,22.50
2022-12-24T12:54:45.128Z,22.50
2022-12-24T12:57:18.004Z,22.50
2022-12-24T12:59:51.607Z,22.50
2022-12-24T13:02:43.715Z,22.50
2022-12-24T13:05:39.317Z,22.50
2022-12-24T13:08:46.760Z,22.50
2022-12-24T13:11:31.224Z,22.50
2022-12-24T13:14:19.884Z,22.50
2022-12-24T13:17:04.520Z,22.50
2022-12-24T13:19:48.743Z,22.60
2022-12-24T13:22:18.398Z,22.50
2022-12-24T13:24:52.537Z,22.50
2022-12-24T13:27:25.911Z,22.50
2022-12-24T13:29:56.783Z,22.50
2022-12-24T13:32:49.303Z,22.60
2022-12-24T13:35:58.537Z,22.50
2022-12-24T13:38:45.283Z,22.60
2022-12-24T13:41:58.946Z,22.60
2022-12-24T13:44:33.535Z,22.60
2022-12-24T13:47:06.548Z,22.60
2022-12-24T13:49:37.448Z,22.60
2022-12-24T13:52:29.981Z,22.60
2022-12-24T13:55:08.857Z,22.60
2022-12-24T13:57:42.541Z,22.60
2022-12-24T14:00:34.323Z,22.50
2022-12-24T14:03:06.549Z,22.50
2022-12-24T14:05:38.261Z,22.50
2022-12-24T14:08:09.344Z,22.50
2022-12-24T14:10:41.088Z,22.50
2022-12-24T14:13:52.952Z,22.50
2022-12-24T14:16:24.275Z,22.50
2022-12-24T14:19:00.306Z,22.50
2022-12-24T14:21:32.944Z,22.40
2022-12-24T14:24:04.193Z,22.40
2022-12-24T14:26:36.271Z,22.40
2022-12-24T14:29:07.858Z,22.40
2022-12-24T14:31:37.002Z,22.40
2022-12-24T14:34:08.487Z,22.40
2022-12-24T14:36:37.442Z,22.40
2022-12-24T14:39:07.419Z,22.40
2022-12-24T14:41:44.944Z,22.40
2022-12-24T14:44:24.351Z,22.40
2022-12-24T14:46:57.948Z,22.40
2022-12-24T14:49:39.268Z,22.40
2022-12-24T14:52:37.725Z,22.40
2022-12-24T14:55:29.853Z,22.30
2022-12-24T14:58:31.722Z,22.30
2022-12-24T15:01:01.430Z,22.30
2022-12-24T15:03:32.177Z,22.30
2022-12-24T15:06:04.439Z,22.30
2022-12-24T15:08:34.670Z,22.30
2022-12-24T15:11:06.013Z,22.30
2022-12-24T15:13:38.403Z,22.30
2022-12-24T15:16:09.702Z,22.30
2022-12-24T15:18:43.712Z,22.30
2022-12-24T15:21:18.950Z,22.30
2022-12-24T15:23:49.006Z,22.30
2022-12-24T15:26:22.867Z,22.20
2022-12-24T15:28:58.310Z,22.20
2022-12-24T15:31:30.663Z,22.20
2022-12-24T15:34:00.192Z,22.30
2022-12-24T15:36:31.330Z,22.20
2022-12-24T15:39:01.131Z,22.20
2022-12-24T15:41:33.728Z,22.20
2022-12-24T15:44:04.094Z,22.20
2022-12-24T15:46:33.453Z,22.20
2022-12-24T15:49:03.782Z,22.20
2022-12-24T15:51:37.191Z,22.20
2022-12-24T15:54:12.525Z,22.20
2022-12-24T15:56:44.006Z,22.20
2022-12-24T15:59:14.315Z,22.20
2022-12-24T16:01:42.985Z,22.20
2022-12-24T16:04:16.372Z,22.20
2022-12-24T16:06:55.891Z,22.20
2022-12-24T16:09:47.459Z,22.20
2022-12-24T16:12:20.916Z,22.20
2022-12-24T16:14:52.353Z,22.20
2022-12-24T16:17:22.867Z,22.10
2022-12-24T16:19:55.462Z,22.10
2022-12-24T16:22:34.883Z,22.10
2022-12-24T16:25:16.341Z,22.10
2022-12-24T16:27:44.019Z,22.10
2022-12-24T16:30:13.335Z,22.10
2022-12-24T16:32:41.948Z,22.10
2022-12-24T16:35:27.893Z,22.10
2022-12-24T16:37:56.067Z,22.10
2022-12-24T16:40:27.762Z,22.10
2022-12-24T16:43:14.323Z,22.10
2022-12-24T16:45:42.526Z,22.10
2022-12-24T16:48:12.868Z,22.10
2022-12-24T16:50:41.883Z,22.10
2022-12-24T16:53:17.191Z,22.10
2022-12-24T16:55:47.490Z,22.10
2022-12-24T16:58:16.492Z,22.10
2022-12-24T17:00:45.518Z,22.10
2022-12-24T17:03:13.706Z,22.10
2022-12-24T17:05:44.278Z,22.10
2022-12-24T17:08:12.956Z,22.10
2022-12-24T17:10:41.227Z,22.10
2022-12-24T17:13:08.948Z,22.10
2022-12-24T17:15:36.741Z,22.10
2022-12-24T17:18:04.649Z,22.10
2022-12-24T17:20:32.336Z,22.10
2022-12-24T17:23:01.590Z,22.00
2022-12-24T17:25:29.296Z,22.10
2022-12-24T17:27:56.969Z,22.10
2022-12-24T17:30:24.669Z,22.10
2022-12-24T17:32:52.409Z,22.00
2022-12-24T17:35:20.111Z,22.10
2022-12-24T17:37:47.796Z,22.10
2022-12-24T17:40:17.016Z,22.10
2022-12-24T17:42:44.734Z,22.10
2022-12-24T17:45:12.558Z,22.00
2022-12-24T17:47:41.231Z,22.10
2022-12-24T17:50:10.001Z,22.10
2022-12-24T17:52:37.714Z,22.00
2022-12-24T17:55:06.616Z,22.00
2022-12-24T17:57:35.671Z,22.00
2022-12-24T18:00:03.466Z,22.00
2022-12-24T18:02:32.487Z,22.00
2022-12-24T18:05:00.285Z,22.00
2022-12-24T18:07:27.963Z,22.00
2022-12-24T18:09:55.656Z,22.00
2022-12-24T18:12:23.362Z,22.00
2022-12-24T18:14:52.380Z,22.00
2022-12-24T18:17:20.084Z,22.00
2022-12-24T18:19:47.775Z,22.00
2022-12-24T18:22:15.488Z,22.00
2022-12-24T18:24:43.253Z,22.00
2022-12-24T18:27:10.948Z,22.00
2022-12-24T18:29:41.485Z,22.00
2022-12-24T18:32:12.749Z,22.00
2022-12-24T18:34:40.462Z,22.00
2022-12-24T18:37:08.197Z,22.00
2022-12-24T18:39:36.011Z,22.00
2022-12-24T18:42:03.711Z,22.00
2022-12-24T18:44:31.411Z,22.00
2022-12-24T18:46:59.195Z,22.00
2022-12-24T18:49:28.455Z,22.00
2022-12-24T18:51:56.156Z,22.00
2022-12-24T18:54:23.901Z,22.00
2022-12-24T18:56:52.346Z,22.00
2022-12-24T18:59:20.075Z,22.00
2022-12-24T19:01:48.067Z,22.00
2022-12-24T19:04:16.615Z,22.00
2022-12-24T19:06:52.471Z,22.00
2022-12-24T19:09:20.938Z,22.00
2022-12-24T19:11:48.787Z,22.00
2022-12-24T19:14:16.498Z,22.00
2022-12-24T19:16:44.281Z,22.00
2022-12-24T19:19:12.651Z,22.00
2022-12-24T19:21:40.395Z,22.00
2022-12-24T19:24:10.522Z,22.00
2022-12-24T19:26:38.634Z,22.00
2022-12-24T19:29:06.349Z,22.00
2022-12-24T19:31:34.156Z,22.00
2022-12-24T19:34:02.055Z,22.00
2022-12-24T19:36:31.182Z,22.00
2022-12-24T19:38:59.903Z,22.00
2022-12-24T19:41:30.522Z,22.00
2022-12-24T19:44:00.459Z,22.00
2022-12-24T19:46:30.196Z,22.00
2022-12-24T19:48:59.773Z,22.00
2022-12-24T19:51:28.444Z,22.00
2022-12-24T19:53:57.784Z,22.00
2022-12-24T19:56:27.096Z,22.00
2022-12-24T19:58:57.631Z,22.00
2022-12-24T20:01:27.162Z,22.00
2022-12-24T20:03:55.362Z,22.00
2022-12-24T20:06:25.366Z,22.10
2022-12-24T20:08:53.443Z,22.00
2022-12-24T20:11:22.199Z,22.00
2022-12-24T20:13:49.933Z,22.00
2022-12-24T20:16:20.955Z,22.00
2022-12-24T20:18:52.821Z,22.00
2022-12-24T20:21:20.952Z,22.00
2022-12-24T20:23:48.658Z,22.00
2022-12-24T20:26:18.261Z,22.00
2022-12-24T20:28:46.468Z,22.00
2022-12-24T20:31:16.686Z,22.10
2022-12-24T20:33:46.690Z,22.10
2022-12-24T20:36:17.822Z,22.10
2022-12-24T20:38:46.282Z,22.10
2022-12-24T20:41:15.775Z,22.00
2022-12-24T20:43:48.319Z,22.10
2022-12-24T20:46:17.412Z,22.00
2022-12-24T20:48:46.980Z,22.00
2022-12-24T20:51:23.296Z,22.00
2022-12-24T20:53:52.521Z,22.10
2022-12-24T20:56:20.835Z,22.10
2022-12-24T20:58:49.355Z,22.10
2022-12-24T21:01:19.340Z,22.10
2022-12-24T21:03:48.903Z,22.10
2022-12-24T21:06:17.854Z,22.10
2022-12-24T21:08:45.974Z,22.10
2022-12-24T21:11:39.740Z,22.10
2022-12-24T21:14:07.577Z,22.10
2022-12-24T21:16:36.902Z,22.00
2022-12-24T21:19:07.103Z,22.00
2022-12-24T21:21:35.776Z,22.00
2022-12-24T21:24:04.560Z,22.10
2022-12-24T21:26:32.637Z,22.10
2022-12-24T21:29:01.334Z,22.10
2022-12-24T21:31:29.274Z,22.00
2022-12-24T21:33:57.211Z,22.10
2022-12-24T21:36:26.834Z,22.00
2022-12-24T21:38:54.975Z,22.00
2022-12-24T21:41:23.782Z,22.00
2022-12-24T21:43:51.530Z,22.00
2022-12-24T21:46:23.154Z,22.10
2022-12-24T21:49:09.635Z,22.00
2022-12-24T21:51:39.070Z,22.00
2022-12-24T21:54:27.049Z,22.00
2022-12-24T21:57:19.692Z,22.00
2022-12-24T21:59:50.060Z,22.10
2022-12-24T22:02:19.249Z,22.10
2022-12-24T22:04:47.116Z,22.10
2022-12-24T22:07:40.785Z,22.10
2022-12-24T22:10:27.377Z,22.00
2022-12-24T22:12:55.951Z,22.10
2022-12-24T22:15:23.955Z,22.10
2022-12-24T22:17:51.916Z,22.10
2022-12-24T22:20:19.649Z,22.10
2022-12-24T22:22:49.897Z,22.10
2022-12-24T22:25:18.323Z,22.10
2022-12-24T22:27:46.060Z,22.10
2022-12-24T22:30:14.062Z,22.10
2022-12-24T22:32:41.743Z,22.10
2022-12-24T22:35:09.994Z,22.10
2022-12-24T22:37:37.755Z,22.10
2022-12-24T22:40:08.336Z,22.10
2022-12-24T22:42:36.092Z,22.10
2022-12-24T22:45:03.920Z,22.20
2022-12-24T22:47:31.754Z,22.20
2022-12-24T22:49:59.964Z,22.10
2022-12-24T22:52:27.708Z,22.10
2022-12-24T22:54:55.409Z,22.10
2022-12-24T22:57:24.432Z,22.10
2022-12-24T22:59:52.138Z,22.20
2022-12-24T23:02:27.555Z,22.20
2022-12-24T23:04:55.724Z,22.20
2022-12-24T23:07:23.471Z,22.20
2022-12-24T23:09:51.222Z,22.20
2022-12-24T23:12:39.424Z,22.20
2022-12-24T23:15:08.887Z,22.20
2022-12-24T23:17:36.614Z,22.20
2022-12-24T23:20:05.092Z,22.20
2022-12-24T23:22:32.827Z,22.10
2022-12-24T23:25:00.583Z,22.10
2022-12-24T23:27:28.443Z,22.20
2022-12-24T23:29:56.239Z,22.20
2022-12-24T23:32:25.277Z,22.20
2022-12-24T23:34:52.977Z,22.20
2022-12-24T23:37:20.682Z,22.10
2022-12-24T23:39:48.699Z,22.10
2022-12-24T23:42:16.431Z,22.10
2022-12-24T23:44:44.139Z,22.10
2022-12-24T23:47:11.828Z,22.10
2022-12-24T23:49:40.891Z,22.10
2022-12-24T23:52:08.615Z,22.10
2022-12-24T23:54:36.420Z,22.10
2022-12-24T23:57:04.154Z,22.10
2022-12-24T23:59:33.998Z,22.10
